首页
METAR-TAF:

METAR-TAF

机场 :

赫拉特国际机场

赫拉特, 阿富汗

纬度: 34-13N, 经度: 062-13E, 海拔: 964米

当前天气观测

该预报发布于1小时和7分钟前的07:55 UTC
风速6节,风向西北
温度 9°C
湿度 71%
气压 1017 hPa
能見度: 9000
少量云层高于5000英尺
多云层高于7000英尺
附近有阵雨

METAR: OAHR 120755Z 31006KT 9000 VCSH FEW050 BKN070 09/04 Q1017 RMK A3006 BLU

时间: 13:32 (09:02 UTC)

预报

该预报发布于4小时和2分钟前的05:00 UTC
预报有效从12日的 06点(UTC)到 13日的 06点(UTC)
风速6节,风向西
能见度10公里或以上
少量云层高于5000英尺
散云层高于7000英尺
短暂存在
从 12日的 06点(UTC)到 12日的 10点(UTC)
风速10节,风向北转西北
能見度: 8000
少量云层高于3000英尺
多云层高于5000英尺
小阵雨
成为
从 12日的 10点(UTC)到 12日的 12点(UTC)
风速8节,风向西
能见度10公里或以上
少量云层高于5000英尺
散云层高于7000英尺
成为
从 12日的 14点(UTC)到 12日的 16点(UTC)
多云层高于5000英尺
成为
从 12日的 18点(UTC)到 12日的 20点(UTC)
风速8节,风向北转东北
少量云层高于7000英尺

TAF: OAHR 120500Z 1206/1306 28006KT 9999 FEW050 SCT070 TEMPO 1206/1210 33010KT 8000 -SHRA FEW030 BKN050 BECMG 1210/1212 28008KT 9999 FEW050 SCT070 BECMG 1214/1216 BKN050 BECMG 1218/1220 02008KT FEW070

超过4000个机场的气象观测和天气预报(METAR&TAF报告)。

可查询的气象台以黄色和红色小点在地图上表示。

将鼠标移到小点上方,可查看气象台名称。

然后点击查看天气观测和预报。

如需切换地图:点击带黑十字的绿色按钮放大地图;点击带横线的绿色按钮缩小地图;或者点击绿色箭头查看邻近地区的地图。


METAR-TAF: